sensor_id;sensor_type;location;lat;lon;timestamp;temperature;humidity
14873;DHT22;7528;48.576;19.122;2023-03-01T00:01:18;6.00;58.30
14873;DHT22;7528;48.576;19.122;2023-03-01T00:06:21;6.00;58.80
14873;DHT22;7528;48.576;19.122;2023-03-01T00:11:25;6.00;59.00
14873;DHT22;7528;48.576;19.122;2023-03-01T00:16:31;6.10;59.10
14873;DHT22;7528;48.576;19.122;2023-03-01T00:21:34;6.10;58.90
14873;DHT22;7528;48.576;19.122;2023-03-01T00:26:37;6.10;58.80
14873;DHT22;7528;48.576;19.122;2023-03-01T00:31:41;6.10;59.00
14873;DHT22;7528;48.576;19.122;2023-03-01T00:36:44;6.00;59.20
14873;DHT22;7528;48.576;19.122;2023-03-01T00:41:47;6.00;59.30
14873;DHT22;7528;48.576;19.122;2023-03-01T00:46:50;6.00;59.20
14873;DHT22;7528;48.576;19.122;2023-03-01T00:51:53;6.10;59.30
14873;DHT22;7528;48.576;19.122;2023-03-01T00:56:58;6.10;59.40
14873;DHT22;7528;48.576;19.122;2023-03-01T01:02:02;6.10;59.60
14873;DHT22;7528;48.576;19.122;2023-03-01T01:07:04;6.00;59.50
14873;DHT22;7528;48.576;19.122;2023-03-01T01:12:08;6.00;59.40
14873;DHT22;7528;48.576;19.122;2023-03-01T01:17:11;6.00;59.30
14873;DHT22;7528;48.576;19.122;2023-03-01T01:22:15;6.00;58.70
14873;DHT22;7528;48.576;19.122;2023-03-01T01:27:18;6.00;58.40
14873;DHT22;7528;48.576;19.122;2023-03-01T01:32:22;6.00;57.20
14873;DHT22;7528;48.576;19.122;2023-03-01T01:37:24;6.10;56.70
14873;DHT22;7528;48.576;19.122;2023-03-01T01:42:34;6.10;57.00
14873;DHT22;7528;48.576;19.122;2023-03-01T01:47:38;6.10;57.60
14873;DHT22;7528;48.576;19.122;2023-03-01T01:52:41;6.00;58.00
14873;DHT22;7528;48.576;19.122;2023-03-01T01:57:45;5.90;59.80
14873;DHT22;7528;48.576;19.122;2023-03-01T02:02:54;5.80;60.00
14873;DHT22;7528;48.576;19.122;2023-03-01T02:07:58;5.90;60.30
14873;DHT22;7528;48.576;19.122;2023-03-01T02:13:01;5.90;59.90
14873;DHT22;7528;48.576;19.122;2023-03-01T02:18:07;5.70;60.00
14873;DHT22;7528;48.576;19.122;2023-03-01T02:23:12;5.60;60.90
14873;DHT22;7528;48.576;19.122;2023-03-01T02:28:34;5.80;60.00
14873;DHT22;7528;48.576;19.122;2023-03-01T02:33:38;5.70;59.50
14873;DHT22;7528;48.576;19.122;2023-03-01T02:38:41;5.80;59.30
14873;DHT22;7528;48.576;19.122;2023-03-01T02:43:45;5.80;59.10
14873;DHT22;7528;48.576;19.122;2023-03-01T02:48:50;5.90;59.10
14873;DHT22;7528;48.576;19.122;2023-03-01T02:53:59;5.90;59.00
14873;DHT22;7528;48.576;19.122;2023-03-01T02:59:07;5.90;59.30
14873;DHT22;7528;48.576;19.122;2023-03-01T03:04:13;5.90;59.20
14873;DHT22;7528;48.576;19.122;2023-03-01T03:09:19;5.90;59.30
14873;DHT22;7528;48.576;19.122;2023-03-01T03:14:23;5.90;59.00
14873;DHT22;7528;48.576;19.122;2023-03-01T03:19:26;5.90;59.10
14873;DHT22;7528;48.576;19.122;2023-03-01T03:24:28;5.90;58.80
14873;DHT22;7528;48.576;19.122;2023-03-01T03:29:40;5.90;58.80
14873;DHT22;7528;48.576;19.122;2023-03-01T03:34:42;5.90;59.00
14873;DHT22;7528;48.576;19.122;2023-03-01T03:39:45;5.90;59.30
14873;DHT22;7528;48.576;19.122;2023-03-01T03:44:49;5.90;59.40
14873;DHT22;7528;48.576;19.122;2023-03-01T03:49:51;5.90;59.50
14873;DHT22;7528;48.576;19.122;2023-03-01T03:54:53;6.00;59.50
14873;DHT22;7528;48.576;19.122;2023-03-01T03:59:57;5.90;59.50
14873;DHT22;7528;48.576;19.122;2023-03-01T04:05:00;5.90;59.10
14873;DHT22;7528;48.576;19.122;2023-03-01T04:10:03;6.00;59.40
14873;DHT22;7528;48.576;19.122;2023-03-01T04:15:07;6.00;59.50
14873;DHT22;7528;48.576;19.122;2023-03-01T04:20:16;5.90;59.40
14873;DHT22;7528;48.576;19.122;2023-03-01T04:25:25;5.90;59.20
14873;DHT22;7528;48.576;19.122;2023-03-01T04:30:29;6.00;59.60
14873;DHT22;7528;48.576;19.122;2023-03-01T04:35:36;6.00;59.40
14873;DHT22;7528;48.576;19.122;2023-03-01T04:40:39;6.00;59.40
14873;DHT22;7528;48.576;19.122;2023-03-01T04:45:45;5.90;59.40
14873;DHT22;7528;48.576;19.122;2023-03-01T04:50:47;5.90;59.90
14873;DHT22;7528;48.576;19.122;2023-03-01T04:55:50;5.80;60.40
14873;DHT22;7528;48.576;19.122;2023-03-01T05:00:54;5.80;61.00
14873;DHT22;7528;48.576;19.122;2023-03-01T05:05:58;5.90;60.30
14873;DHT22;7528;48.576;19.122;2023-03-01T05:11:01;5.90;60.20
14873;DHT22;7528;48.576;19.122;2023-03-01T05:16:07;6.00;59.90
14873;DHT22;7528;48.576;19.122;2023-03-01T05:21:13;6.00;59.60
14873;DHT22;7528;48.576;19.122;2023-03-01T05:26:17;6.00;59.00
14873;DHT22;7528;48.576;19.122;2023-03-01T05:31:24;6.00;58.50
14873;DHT22;7528;48.576;19.122;2023-03-01T05:36:27;6.00;58.90
14873;DHT22;7528;48.576;19.122;2023-03-01T05:41:29;6.00;59.30
14873;DHT22;7528;48.576;19.122;2023-03-01T05:46:33;6.00;59.20
14873;DHT22;7528;48.576;19.122;2023-03-01T05:51:36;6.00;59.50
14873;DHT22;7528;48.576;19.122;2023-03-01T05:56:39;6.00;59.50
14873;DHT22;7528;48.576;19.122;2023-03-01T06:01:42;6.10;59.50
14873;DHT22;7528;48.576;19.122;2023-03-01T06:06:45;6.10;59.50
14873;DHT22;7528;48.576;19.122;2023-03-01T06:11:48;6.10;59.30
14873;DHT22;7528;48.576;19.122;2023-03-01T06:16:52;6.20;59.10
14873;DHT22;7528;48.576;19.122;2023-03-01T06:21:54;6.20;59.10
14873;DHT22;7528;48.576;19.122;2023-03-01T06:26:57;6.20;58.50
14873;DHT22;7528;48.576;19.122;2023-03-01T06:32:01;6.20;58.90
14873;DHT22;7528;48.576;19.122;2023-03-01T06:37:04;6.30;58.80
14873;DHT22;7528;48.576;19.122;2023-03-01T06:42:07;6.30;58.90
14873;DHT22;7528;48.576;19.122;2023-03-01T06:47:12;6.40;58.70
14873;DHT22;7528;48.576;19.122;2023-03-01T06:52:15;6.40;58.40
14873;DHT22;7528;48.576;19.122;2023-03-01T06:57:17;6.50;58.20
14873;DHT22;7528;48.576;19.122;2023-03-01T07:02:21;6.60;58.10
14873;DHT22;7528;48.576;19.122;2023-03-01T07:07:24;6.70;57.70
14873;DHT22;7528;48.576;19.122;2023-03-01T07:12:26;6.80;57.20
14873;DHT22;7528;48.576;19.122;2023-03-01T07:17:30;6.80;57.00
14873;DHT22;7528;48.576;19.122;2023-03-01T07:22:33;6.90;56.70
14873;DHT22;7528;48.576;19.122;2023-03-01T07:27:35;7.10;55.80
14873;DHT22;7528;48.576;19.122;2023-03-01T07:32:39;7.20;55.90
14873;DHT22;7528;48.576;19.122;2023-03-01T07:37:43;7.30;55.60
14873;DHT22;7528;48.576;19.122;2023-03-01T07:42:45;7.40;55.40
14873;DHT22;7528;48.576;19.122;2023-03-01T07:47:50;7.40;55.10
14873;DHT22;7528;48.576;19.122;2023-03-01T07:52:53;7.60;54.30
14873;DHT22;7528;48.576;19.122;2023-03-01T07:57:55;7.80;54.40
14873;DHT22;7528;48.576;19.122;2023-03-01T08:03:00;8.00;53.00
14873;DHT22;7528;48.576;19.122;2023-03-01T08:08:04;8.10;53.60
14873;DHT22;7528;48.576;19.122;2023-03-01T08:13:07;8.40;52.10
14873;DHT22;7528;48.576;19.122;2023-03-01T08:18:11;9.10;50.50
14873;DHT22;7528;48.576;19.122;2023-03-01T08:23:13;9.90;48.70
14873;DHT22;7528;48.576;19.122;2023-03-01T08:28:15;10.70;46.90
14873;DHT22;7528;48.576;19.122;2023-03-01T08:33:19;11.60;44.50
14873;DHT22;7528;48.576;19.122;2023-03-01T08:38:22;12.10;43.60
14873;DHT22;7528;48.576;19.122;2023-03-01T08:43:24;12.40;42.70
14873;DHT22;7528;48.576;19.122;2023-03-01T08:48:29;12.50;41.60
14873;DHT22;7528;48.576;19.122;2023-03-01T08:53:31;12.90;41.20
14873;DHT22;7528;48.576;19.122;2023-03-01T08:58:34;13.20;40.90
14873;DHT22;7528;48.576;19.122;2023-03-01T09:03:39;13.40;40.90
14873;DHT22;7528;48.576;19.122;2023-03-01T09:08:43;13.70;40.00
14873;DHT22;7528;48.576;19.122;2023-03-01T09:13:47;14.10;39.10
14873;DHT22;7528;48.576;19.122;2023-03-01T09:18:52;14.40;38.40
14873;DHT22;7528;48.576;19.122;2023-03-01T09:23:56;14.50;37.80
14873;DHT22;7528;48.576;19.122;2023-03-01T09:28:59;14.30;37.90
14873;DHT22;7528;48.576;19.122;2023-03-01T09:34:04;14.10;38.30
14873;DHT22;7528;48.576;19.122;2023-03-01T09:39:07;14.00;38.20
14873;DHT22;7528;48.576;19.122;2023-03-01T09:44:16;15.20;38.40
14873;DHT22;7528;48.576;19.122;2023-03-01T09:49:24;19.40;31.00
14873;DHT22;7528;48.576;19.122;2023-03-01T09:54:27;21.70;27.00
14873;DHT22;7528;48.576;19.122;2023-03-01T09:59:37;23.00;25.60
14873;DHT22;7528;48.576;19.122;2023-03-01T10:04:46;24.40;24.30
14873;DHT22;7528;48.576;19.122;2023-03-01T10:09:49;25.80;22.70
14873;DHT22;7528;48.576;19.122;2023-03-01T10:14:57;26.90;21.50
14873;DHT22;7528;48.576;19.122;2023-03-01T10:20:19;27.80;20.20
14873;DHT22;7528;48.576;19.122;2023-03-01T10:25:36;28.50;19.00
14873;DHT22;7528;48.576;19.122;2023-03-01T10:30:42;28.90;18.50
14873;DHT22;7528;48.576;19.122;2023-03-01T10:35:46;29.40;18.80
14873;DHT22;7528;48.576;19.122;2023-03-01T10:40:54;29.90;18.50
14873;DHT22;7528;48.576;19.122;2023-03-01T10:45:57;30.50;18.20
14873;DHT22;7528;48.576;19.122;2023-03-01T10:51:08;31.70;17.10
14873;DHT22;7528;48.576;19.122;2023-03-01T10:56:15;32.70;16.70
14873;DHT22;7528;48.576;19.122;2023-03-01T11:01:26;33.20;16.60
14873;DHT22;7528;48.576;19.122;2023-03-01T11:06:30;33.50;15.50
14873;DHT22;7528;48.576;19.122;2023-03-01T11:11:33;34.00;15.20
14873;DHT22;7528;48.576;19.122;2023-03-01T11:16:37;34.60;15.20
14873;DHT22;7528;48.576;19.122;2023-03-01T11:21:47;34.60;15.20
14873;DHT22;7528;48.576;19.122;2023-03-01T11:26:55;35.20;15.40
14873;DHT22;7528;48.576;19.122;2023-03-01T11:32:00;35.70;15.30
14873;DHT22;7528;48.576;19.122;2023-03-01T11:37:21;36.10;15.90
14873;DHT22;7528;48.576;19.122;2023-03-01T11:42:36;36.90;15.40
14873;DHT22;7528;48.576;19.122;2023-03-01T11:48:05;37.00;15.70
14873;DHT22;7528;48.576;19.122;2023-03-01T11:53:30;36.30;15.20
14873;DHT22;7528;48.576;19.122;2023-03-01T11:58:49;35.90;16.30
14873;DHT22;7528;48.576;19.122;2023-03-01T12:09:59;36.90;15.90
14873;DHT22;7528;48.576;19.122;2023-03-01T12:15:33;37.20;15.70
14873;DHT22;7528;48.576;19.122;2023-03-01T12:20:46;37.80;15.20
14873;DHT22;7528;48.576;19.122;2023-03-01T12:25:57;37.60;15.70
14873;DHT22;7528;48.576;19.122;2023-03-01T12:31:33;37.10;15.60
14873;DHT22;7528;48.576;19.122;2023-03-01T12:36:50;37.70;15.20
14873;DHT22;7528;48.576;19.122;2023-03-01T12:42:03;37.70;15.10
14873;DHT22;7528;48.576;19.122;2023-03-01T12:47:28;37.90;15.10
14873;DHT22;7528;48.576;19.122;2023-03-01T12:52:37;37.60;14.90
14873;DHT22;7528;48.576;19.122;2023-03-01T15:16:08;26.80;22.60
14873;DHT22;7528;48.576;19.122;2023-03-01T15:21:17;25.70;24.50
14873;DHT22;7528;48.576;19.122;2023-03-01T15:26:24;24.60;25.10
14873;DHT22;7528;48.576;19.122;2023-03-01T15:31:32;24.00;25.70
14873;DHT22;7528;48.576;19.122;2023-03-01T15:36:40;23.50;25.90
14873;DHT22;7528;48.576;19.122;2023-03-01T15:41:47;23.00;26.10
14873;DHT22;7528;48.576;19.122;2023-03-01T15:46:52;22.80;26.40
14873;DHT22;7528;48.576;19.122;2023-03-01T15:51:55;22.60;27.10
14873;DHT22;7528;48.576;19.122;2023-03-01T15:56:57;22.30;27.00
14873;DHT22;7528;48.576;19.122;2023-03-01T16:02:01;21.90;27.80
14873;DHT22;7528;48.576;19.122;2023-03-01T16:07:04;21.50;29.00
14873;DHT22;7528;48.576;19.122;2023-03-01T16:12:11;21.20;30.50
14873;DHT22;7528;48.576;19.122;2023-03-01T16:17:16;20.70;31.00
14873;DHT22;7528;48.576;19.122;2023-03-01T16:22:18;20.30;31.40
14873;DHT22;7528;48.576;19.122;2023-03-01T16:27:25;19.90;31.60
14873;DHT22;7528;48.576;19.122;2023-03-01T16:32:29;19.50;33.20
14873;DHT22;7528;48.576;19.122;2023-03-01T16:37:33;19.00;34.20
14873;DHT22;7528;48.576;19.122;2023-03-01T16:42:36;18.60;34.60
14873;DHT22;7528;48.576;19.122;2023-03-01T16:47:43;18.10;35.10
14873;DHT22;7528;48.576;19.122;2023-03-01T16:52:45;17.80;36.00
14873;DHT22;7528;48.576;19.122;2023-03-01T16:57:48;17.50;36.00
14873;DHT22;7528;48.576;19.122;2023-03-01T17:02:53;17.20;36.60
14873;DHT22;7528;48.576;19.122;2023-03-01T17:07:56;17.00;38.00
14873;DHT22;7528;48.576;19.122;2023-03-01T17:13:00;16.70;38.20
14873;DHT22;7528;48.576;19.122;2023-03-01T17:18:04;16.40;38.80
14873;DHT22;7528;48.576;19.122;2023-03-01T17:23:07;16.10;39.60
14873;DHT22;7528;48.576;19.122;2023-03-01T17:28:10;15.80;40.20
14873;DHT22;7528;48.576;19.122;2023-03-01T17:33:15;15.60;40.60
14873;DHT22;7528;48.576;19.122;2023-03-01T17:38:18;15.30;41.30
14873;DHT22;7528;48.576;19.122;2023-03-01T17:43:21;15.00;41.80
14873;DHT22;7528;48.576;19.122;2023-03-01T17:48:26;14.80;42.20
14873;DHT22;7528;48.576;19.122;2023-03-01T17:53:28;14.50;42.60
14873;DHT22;7528;48.576;19.122;2023-03-01T17:58:31;14.20;43.10
14873;DHT22;7528;48.576;19.122;2023-03-01T18:03:35;13.90;43.80
14873;DHT22;7528;48.576;19.122;2023-03-01T18:08:37;13.70;44.30
14873;DHT22;7528;48.576;19.122;2023-03-01T18:13:40;13.50;45.00
14873;DHT22;7528;48.576;19.122;2023-03-01T18:18:44;13.30;45.50
14873;DHT22;7528;48.576;19.122;2023-03-01T18:23:46;13.00;46.20
14873;DHT22;7528;48.576;19.122;2023-03-01T18:28:49;12.90;46.70
14873;DHT22;7528;48.576;19.122;2023-03-01T18:33:54;12.60;47.00
14873;DHT22;7528;48.576;19.122;2023-03-01T18:38:56;12.40;47.50
14873;DHT22;7528;48.576;19.122;2023-03-01T18:44:00;12.30;47.50
14873;DHT22;7528;48.576;19.122;2023-03-01T18:49:05;12.20;47.80
14873;DHT22;7528;48.576;19.122;2023-03-01T18:54:10;12.00;48.10
14873;DHT22;7528;48.576;19.122;2023-03-01T18:59:12;11.70;49.50
14873;DHT22;7528;48.576;19.122;2023-03-01T19:04:16;11.50;50.00
14873;DHT22;7528;48.576;19.122;2023-03-01T19:09:18;11.40;50.00
14873;DHT22;7528;48.576;19.122;2023-03-01T19:14:21;11.30;50.10
14873;DHT22;7528;48.576;19.122;2023-03-01T19:19:25;11.10;50.30
14873;DHT22;7528;48.576;19.122;2023-03-01T19:24:28;11.00;50.50
14873;DHT22;7528;48.576;19.122;2023-03-01T19:29:31;10.80;50.80
14873;DHT22;7528;48.576;19.122;2023-03-01T19:34:35;10.70;51.30
14873;DHT22;7528;48.576;19.122;2023-03-01T19:39:40;10.50;51.30
14873;DHT22;7528;48.576;19.122;2023-03-01T19:44:43;10.30;51.70
14873;DHT22;7528;48.576;19.122;2023-03-01T19:49:47;10.30;51.90
14873;DHT22;7528;48.576;19.122;2023-03-01T19:54:49;10.20;52.00
14873;DHT22;7528;48.576;19.122;2023-03-01T19:59:52;10.00;52.20
14873;DHT22;7528;48.576;19.122;2023-03-01T20:04:56;9.90;52.40
14873;DHT22;7528;48.576;19.122;2023-03-01T20:09:59;9.70;52.80
14873;DHT22;7528;48.576;19.122;2023-03-01T20:15:01;9.70;53.10
14873;DHT22;7528;48.576;19.122;2023-03-01T20:20:06;9.50;53.30
14873;DHT22;7528;48.576;19.122;2023-03-01T20:25:09;9.30;53.90
14873;DHT22;7528;48.576;19.122;2023-03-01T20:30:13;9.20;53.90
14873;DHT22;7528;48.576;19.122;2023-03-01T20:35:17;9.10;54.10
14873;DHT22;7528;48.576;19.122;2023-03-01T20:40:21;9.00;54.20
14873;DHT22;7528;48.576;19.122;2023-03-01T20:45:28;8.90;54.40
14873;DHT22;7528;48.576;19.122;2023-03-01T20:50:32;8.80;54.40
14873;DHT22;7528;48.576;19.122;2023-03-01T20:55:34;8.70;54.90
14873;DHT22;7528;48.576;19.122;2023-03-01T21:00:37;8.60;55.10
14873;DHT22;7528;48.576;19.122;2023-03-01T21:05:41;8.50;55.10
14873;DHT22;7528;48.576;19.122;2023-03-01T21:10:48;8.40;55.40
14873;DHT22;7528;48.576;19.122;2023-03-01T21:15:52;8.30;55.30
14873;DHT22;7528;48.576;19.122;2023-03-01T21:20:57;8.20;55.70
14873;DHT22;7528;48.576;19.122;2023-03-01T21:26:02;8.10;55.70
14873;DHT22;7528;48.576;19.122;2023-03-01T21:31:05;8.10;56.00
14873;DHT22;7528;48.576;19.122;2023-03-01T21:36:10;7.90;56.10
14873;DHT22;7528;48.576;19.122;2023-03-01T21:41:14;7.80;56.20
14873;DHT22;7528;48.576;19.122;2023-03-01T21:46:19;7.80;56.40
14873;DHT22;7528;48.576;19.122;2023-03-01T21:51:25;7.70;56.50
14873;DHT22;7528;48.576;19.122;2023-03-01T21:56:29;7.60;56.40
14873;DHT22;7528;48.576;19.122;2023-03-01T22:01:34;7.50;56.60
14873;DHT22;7528;48.576;19.122;2023-03-01T22:06:39;7.40;57.00
14873;DHT22;7528;48.576;19.122;2023-03-01T22:11:44;7.20;57.70
14873;DHT22;7528;48.576;19.122;2023-03-01T22:16:47;7.10;58.00
14873;DHT22;7528;48.576;19.122;2023-03-01T22:21:52;7.10;57.80
14873;DHT22;7528;48.576;19.122;2023-03-01T22:26:55;6.90;57.80
14873;DHT22;7528;48.576;19.122;2023-03-01T22:31:57;6.90;58.00
14873;DHT22;7528;48.576;19.122;2023-03-01T22:37:01;6.90;58.20
14873;DHT22;7528;48.576;19.122;2023-03-01T22:42:04;6.80;58.40
14873;DHT22;7528;48.576;19.122;2023-03-01T22:47:07;6.70;58.90
14873;DHT22;7528;48.576;19.122;2023-03-01T22:52:11;6.70;58.90
14873;DHT22;7528;48.576;19.122;2023-03-01T22:57:13;6.60;58.80
14873;DHT22;7528;48.576;19.122;2023-03-01T23:02:15;6.60;58.70
14873;DHT22;7528;48.576;19.122;2023-03-01T23:07:19;6.60;58.80
14873;DHT22;7528;48.576;19.122;2023-03-01T23:12:22;6.40;59.00
14873;DHT22;7528;48.576;19.122;2023-03-01T23:17:24;6.20;59.50
14873;DHT22;7528;48.576;19.122;2023-03-01T23:22:30;6.20;60.10
14873;DHT22;7528;48.576;19.122;2023-03-01T23:27:35;6.20;59.80
14873;DHT22;7528;48.576;19.122;2023-03-01T23:32:39;6.10;59.90
14873;DHT22;7528;48.576;19.122;2023-03-01T23:37:43;5.90;60.10
14873;DHT22;7528;48.576;19.122;2023-03-01T23:42:46;5.80;61.00
14873;DHT22;7528;48.576;19.122;2023-03-01T23:47:49;5.80;61.90
14873;DHT22;7528;48.576;19.122;2023-03-01T23:52:53;5.80;62.20
14873;DHT22;7528;48.576;19.122;2023-03-01T23:57:55;5.80;61.50
